sensor_id;sensor_type;location;lat;lon;timestamp;P1;durP1;ratioP1;P2;durP2;ratioP2
15383;SDS011;7790;53.022;12.968;2023-03-01T00:03:38;2.53;;;1.60;;
15383;SDS011;7790;53.022;12.968;2023-03-01T00:07:39;1.70;;;1.60;;
15383;SDS011;7790;53.022;12.968;2023-03-01T00:11:39;3.47;;;2.00;;
15383;SDS011;7790;53.022;12.968;2023-03-01T00:15:40;2.97;;;2.23;;
15383;SDS011;7790;53.022;12.968;2023-03-01T00:19:41;1.70;;;1.60;;
15383;SDS011;7790;53.022;12.968;2023-03-01T00:23:42;2.43;;;1.60;;
15383;SDS011;7790;53.022;12.968;2023-03-01T00:27:43;1.90;;;1.80;;
15383;SDS011;7790;53.022;12.968;2023-03-01T00:31:44;1.70;;;1.60;;
15383;SDS011;7790;53.022;12.968;2023-03-01T00:35:45;3.27;;;1.93;;
15383;SDS011;7790;53.022;12.968;2023-03-01T00:39:45;1.70;;;1.60;;
15383;SDS011;7790;53.022;12.968;2023-03-01T00:43:47;2.83;;;1.97;;
15383;SDS011;7790;53.022;12.968;2023-03-01T00:47:49;1.57;;;1.47;;
15383;SDS011;7790;53.022;12.968;2023-03-01T00:51:51;2.00;;;1.80;;
15383;SDS011;7790;53.022;12.968;2023-03-01T00:55:51;1.63;;;1.53;;
15383;SDS011;7790;53.022;12.968;2023-03-01T00:59:52;2.80;;;1.87;;
15383;SDS011;7790;53.022;12.968;2023-03-01T01:03:54;1.90;;;1.80;;
15383;SDS011;7790;53.022;12.968;2023-03-01T01:08:03;1.67;;;1.57;;
15383;SDS011;7790;53.022;12.968;2023-03-01T01:12:04;2.30;;;2.10;;
15383;SDS011;7790;53.022;12.968;2023-03-01T01:16:07;2.30;;;2.10;;
15383;SDS011;7790;53.022;12.968;2023-03-01T01:20:08;2.00;;;1.90;;
15383;SDS011;7790;53.022;12.968;2023-03-01T01:24:10;2.00;;;1.90;;
15383;SDS011;7790;53.022;12.968;2023-03-01T01:28:11;2.30;;;2.10;;
15383;SDS011;7790;53.022;12.968;2023-03-01T01:32:12;1.80;;;1.70;;
15383;SDS011;7790;53.022;12.968;2023-03-01T01:36:13;3.00;;;1.83;;
15383;SDS011;7790;53.022;12.968;2023-03-01T01:40:14;2.10;;;1.83;;
15383;SDS011;7790;53.022;12.968;2023-03-01T01:44:20;1.97;;;1.87;;
15383;SDS011;7790;53.022;12.968;2023-03-01T01:48:28;2.10;;;1.90;;
15383;SDS011;7790;53.022;12.968;2023-03-01T01:52:42;2.00;;;1.90;;
15383;SDS011;7790;53.022;12.968;2023-03-01T01:56:44;1.87;;;1.77;;
15383;SDS011;7790;53.022;12.968;2023-03-01T02:00:50;1.60;;;1.50;;
15383;SDS011;7790;53.022;12.968;2023-03-01T02:04:52;2.00;;;1.90;;
15383;SDS011;7790;53.022;12.968;2023-03-01T02:09:07;1.93;;;1.83;;
15383;SDS011;7790;53.022;12.968;2023-03-01T02:13:13;2.00;;;1.90;;
15383;SDS011;7790;53.022;12.968;2023-03-01T02:17:14;2.10;;;1.90;;
15383;SDS011;7790;53.022;12.968;2023-03-01T02:21:23;2.10;;;2.00;;
15383;SDS011;7790;53.022;12.968;2023-03-01T02:25:40;2.30;;;1.80;;
15383;SDS011;7790;53.022;12.968;2023-03-01T02:29:50;1.70;;;1.60;;
15383;SDS011;7790;53.022;12.968;2023-03-01T02:33:51;1.90;;;1.80;;
15383;SDS011;7790;53.022;12.968;2023-03-01T02:37:53;2.13;;;2.03;;
15383;SDS011;7790;53.022;12.968;2023-03-01T02:41:57;2.00;;;1.77;;
15383;SDS011;7790;53.022;12.968;2023-03-01T02:46:13;2.00;;;1.90;;
15383;SDS011;7790;53.022;12.968;2023-03-01T02:50:25;1.90;;;1.80;;
15383;SDS011;7790;53.022;12.968;2023-03-01T02:55:03;1.90;;;1.80;;
15383;SDS011;7790;53.022;12.968;2023-03-01T02:59:11;1.80;;;1.70;;
15383;SDS011;7790;53.022;12.968;2023-03-01T03:03:16;2.33;;;1.90;;
15383;SDS011;7790;53.022;12.968;2023-03-01T03:07:19;1.80;;;1.70;;
15383;SDS011;7790;53.022;12.968;2023-03-01T03:11:20;1.63;;;1.53;;
15383;SDS011;7790;53.022;12.968;2023-03-01T03:15:21;1.90;;;1.80;;
15383;SDS011;7790;53.022;12.968;2023-03-01T03:19:23;2.00;;;1.90;;
15383;SDS011;7790;53.022;12.968;2023-03-01T03:23:24;2.07;;;1.87;;
15383;SDS011;7790;53.022;12.968;2023-03-01T03:27:25;2.33;;;1.90;;
15383;SDS011;7790;53.022;12.968;2023-03-01T03:31:26;1.87;;;1.77;;
15383;SDS011;7790;53.022;12.968;2023-03-01T03:35:31;1.90;;;1.80;;
15383;SDS011;7790;53.022;12.968;2023-03-01T03:39:33;1.87;;;1.77;;
15383;SDS011;7790;53.022;12.968;2023-03-01T03:43:35;1.80;;;1.70;;
15383;SDS011;7790;53.022;12.968;2023-03-01T03:47:38;1.70;;;1.60;;
15383;SDS011;7790;53.022;12.968;2023-03-01T03:51:38;1.83;;;1.73;;
15383;SDS011;7790;53.022;12.968;2023-03-01T03:55:39;1.77;;;1.67;;
15383;SDS011;7790;53.022;12.968;2023-03-01T03:59:40;1.80;;;1.70;;
15383;SDS011;7790;53.022;12.968;2023-03-01T04:03:41;1.80;;;1.70;;
15383;SDS011;7790;53.022;12.968;2023-03-01T04:07:46;1.60;;;1.50;;
15383;SDS011;7790;53.022;12.968;2023-03-01T04:11:47;2.10;;;2.00;;
15383;SDS011;7790;53.022;12.968;2023-03-01T04:15:52;1.83;;;1.73;;
15383;SDS011;7790;53.022;12.968;2023-03-01T04:19:53;1.83;;;1.73;;
15383;SDS011;7790;53.022;12.968;2023-03-01T04:23:54;2.53;;;1.57;;
15383;SDS011;7790;53.022;12.968;2023-03-01T04:27:55;2.00;;;1.90;;
15383;SDS011;7790;53.022;12.968;2023-03-01T04:31:55;2.80;;;1.73;;
15383;SDS011;7790;53.022;12.968;2023-03-01T04:35:57;1.57;;;1.47;;
15383;SDS011;7790;53.022;12.968;2023-03-01T04:39:58;1.93;;;1.83;;
15383;SDS011;7790;53.022;12.968;2023-03-01T04:43:58;1.97;;;1.77;;
15383;SDS011;7790;53.022;12.968;2023-03-01T04:48:00;1.90;;;1.80;;
15383;SDS011;7790;53.022;12.968;2023-03-01T04:52:01;1.80;;;1.70;;
15383;SDS011;7790;53.022;12.968;2023-03-01T04:56:03;1.70;;;1.60;;
15383;SDS011;7790;53.022;12.968;2023-03-01T05:00:05;1.90;;;1.80;;
15383;SDS011;7790;53.022;12.968;2023-03-01T05:04:20;1.80;;;1.70;;
15383;SDS011;7790;53.022;12.968;2023-03-01T05:08:21;1.90;;;1.70;;
15383;SDS011;7790;53.022;12.968;2023-03-01T05:12:21;1.60;;;1.50;;
15383;SDS011;7790;53.022;12.968;2023-03-01T05:16:22;1.90;;;1.80;;
15383;SDS011;7790;53.022;12.968;2023-03-01T05:20:23;8.27;;;1.70;;
15383;SDS011;7790;53.022;12.968;2023-03-01T05:24:25;1.90;;;1.80;;
15383;SDS011;7790;53.022;12.968;2023-03-01T05:28:27;1.60;;;1.50;;
15383;SDS011;7790;53.022;12.968;2023-03-01T05:32:30;1.57;;;1.47;;
15383;SDS011;7790;53.022;12.968;2023-03-01T05:36:32;2.10;;;1.37;;
15383;SDS011;7790;53.022;12.968;2023-03-01T05:40:33;2.00;;;1.90;;
15383;SDS011;7790;53.022;12.968;2023-03-01T05:44:34;1.90;;;1.80;;
15383;SDS011;7790;53.022;12.968;2023-03-01T05:48:35;1.60;;;1.50;;
15383;SDS011;7790;53.022;12.968;2023-03-01T05:52:36;1.80;;;1.70;;
15383;SDS011;7790;53.022;12.968;2023-03-01T05:56:37;1.60;;;1.50;;
15383;SDS011;7790;53.022;12.968;2023-03-01T06:00:38;1.83;;;1.73;;
15383;SDS011;7790;53.022;12.968;2023-03-01T06:04:38;1.70;;;1.60;;
15383;SDS011;7790;53.022;12.968;2023-03-01T06:08:39;1.60;;;1.50;;
15383;SDS011;7790;53.022;12.968;2023-03-01T06:12:41;1.60;;;1.50;;
15383;SDS011;7790;53.022;12.968;2023-03-01T06:16:42;1.60;;;1.50;;
15383;SDS011;7790;53.022;12.968;2023-03-01T06:20:43;2.30;;;1.57;;
15383;SDS011;7790;53.022;12.968;2023-03-01T06:24:44;2.47;;;1.80;;
15383;SDS011;7790;53.022;12.968;2023-03-01T06:28:45;1.70;;;1.60;;
15383;SDS011;7790;53.022;12.968;2023-03-01T06:32:46;4.03;;;1.60;;
15383;SDS011;7790;53.022;12.968;2023-03-01T06:36:47;3.63;;;1.73;;
15383;SDS011;7790;53.022;12.968;2023-03-01T06:40:51;8.83;;;2.60;;
15383;SDS011;7790;53.022;12.968;2023-03-01T06:44:54;7.07;;;2.03;;
15383;SDS011;7790;53.022;12.968;2023-03-01T06:48:55;5.17;;;1.87;;
15383;SDS011;7790;53.022;12.968;2023-03-01T06:52:56;6.07;;;2.10;;
15383;SDS011;7790;53.022;12.968;2023-03-01T06:56:58;5.10;;;1.60;;
15383;SDS011;7790;53.022;12.968;2023-03-01T07:00:58;7.23;;;2.10;;
15383;SDS011;7790;53.022;12.968;2023-03-01T07:04:59;5.03;;;1.90;;
15383;SDS011;7790;53.022;12.968;2023-03-01T07:09:00;3.33;;;1.70;;
15383;SDS011;7790;53.022;12.968;2023-03-01T07:13:01;3.27;;;1.90;;
15383;SDS011;7790;53.022;12.968;2023-03-01T07:17:02;3.30;;;1.80;;
15383;SDS011;7790;53.022;12.968;2023-03-01T07:21:07;3.57;;;1.73;;
15383;SDS011;7790;53.022;12.968;2023-03-01T07:25:09;2.73;;;1.80;;
15383;SDS011;7790;53.022;12.968;2023-03-01T07:29:11;3.37;;;1.57;;
15383;SDS011;7790;53.022;12.968;2023-03-01T07:33:11;3.10;;;1.70;;
15383;SDS011;7790;53.022;12.968;2023-03-01T07:37:12;3.97;;;1.60;;
15383;SDS011;7790;53.022;12.968;2023-03-01T07:41:13;6.87;;;1.90;;
15383;SDS011;7790;53.022;12.968;2023-03-01T07:45:14;1.63;;;1.50;;
15383;SDS011;7790;53.022;12.968;2023-03-01T07:49:15;1.80;;;1.70;;
15383;SDS011;7790;53.022;12.968;2023-03-01T07:53:16;2.80;;;1.70;;
15383;SDS011;7790;53.022;12.968;2023-03-01T07:57:16;2.90;;;1.57;;
15383;SDS011;7790;53.022;12.968;2023-03-01T08:01:18;1.60;;;1.50;;
15383;SDS011;7790;53.022;12.968;2023-03-01T08:05:20;1.97;;;1.50;;
15383;SDS011;7790;53.022;12.968;2023-03-01T08:09:22;2.83;;;1.73;;
15383;SDS011;7790;53.022;12.968;2023-03-01T08:13:23;2.53;;;1.67;;
15383;SDS011;7790;53.022;12.968;2023-03-01T08:17:24;3.00;;;1.60;;
15383;SDS011;7790;53.022;12.968;2023-03-01T08:21:24;1.93;;;1.70;;
15383;SDS011;7790;53.022;12.968;2023-03-01T08:25:25;2.63;;;1.70;;
15383;SDS011;7790;53.022;12.968;2023-03-01T08:29:26;1.70;;;1.60;;
15383;SDS011;7790;53.022;12.968;2023-03-01T08:33:27;4.30;;;1.90;;
15383;SDS011;7790;53.022;12.968;2023-03-01T08:37:28;2.60;;;1.40;;
15383;SDS011;7790;53.022;12.968;2023-03-01T08:41:31;1.63;;;1.53;;
15383;SDS011;7790;53.022;12.968;2023-03-01T08:45:32;1.77;;;1.60;;
15383;SDS011;7790;53.022;12.968;2023-03-01T08:49:33;1.50;;;1.40;;
15383;SDS011;7790;53.022;12.968;2023-03-01T08:53:34;2.67;;;1.80;;
15383;SDS011;7790;53.022;12.968;2023-03-01T08:57:35;3.83;;;1.90;;
15383;SDS011;7790;53.022;12.968;2023-03-01T09:01:35;2.43;;;1.90;;
15383;SDS011;7790;53.022;12.968;2023-03-01T09:05:37;3.03;;;1.73;;
15383;SDS011;7790;53.022;12.968;2023-03-01T09:09:38;3.50;;;1.77;;
15383;SDS011;7790;53.022;12.968;2023-03-01T09:13:39;5.77;;;1.50;;
15383;SDS011;7790;53.022;12.968;2023-03-01T09:17:40;3.33;;;1.60;;
15383;SDS011;7790;53.022;12.968;2023-03-01T09:21:40;8.03;;;2.20;;
15383;SDS011;7790;53.022;12.968;2023-03-01T09:25:41;10.87;;;2.00;;
15383;SDS011;7790;53.022;12.968;2023-03-01T09:29:42;6.57;;;1.93;;
15383;SDS011;7790;53.022;12.968;2023-03-01T09:33:45;5.57;;;1.63;;
15383;SDS011;7790;53.022;12.968;2023-03-01T09:37:47;4.20;;;1.70;;
15383;SDS011;7790;53.022;12.968;2023-03-01T09:41:54;6.00;;;1.83;;
15383;SDS011;7790;53.022;12.968;2023-03-01T09:46:05;4.37;;;1.63;;
15383;SDS011;7790;53.022;12.968;2023-03-01T09:50:11;3.60;;;1.83;;
15383;SDS011;7790;53.022;12.968;2023-03-01T09:54:14;7.20;;;1.70;;
15383;SDS011;7790;53.022;12.968;2023-03-01T10:03:03;3.10;;;1.70;;
15383;SDS011;7790;53.022;12.968;2023-03-01T10:07:07;2.20;;;1.40;;
15383;SDS011;7790;53.022;12.968;2023-03-01T10:11:29;4.37;;;1.60;;
15383;SDS011;7790;53.022;12.968;2023-03-01T10:15:38;4.10;;;1.77;;
15383;SDS011;7790;53.022;12.968;2023-03-01T10:20:15;2.83;;;1.50;;
15383;SDS011;7790;53.022;12.968;2023-03-01T10:24:21;3.67;;;1.50;;
15383;SDS011;7790;53.022;12.968;2023-03-01T10:28:28;4.33;;;1.50;;
15383;SDS011;7790;53.022;12.968;2023-03-01T10:32:34;2.07;;;1.13;;
15383;SDS011;7790;53.022;12.968;2023-03-01T10:36:35;4.53;;;1.20;;
15383;SDS011;7790;53.022;12.968;2023-03-01T10:40:51;4.43;;;1.50;;
15383;SDS011;7790;53.022;12.968;2023-03-01T10:44:57;5.40;;;1.30;;
15383;SDS011;7790;53.022;12.968;2023-03-01T10:49:21;2.93;;;1.67;;
15383;SDS011;7790;53.022;12.968;2023-03-01T10:53:31;3.63;;;1.63;;
15383;SDS011;7790;53.022;12.968;2023-03-01T10:57:43;4.07;;;1.60;;
15383;SDS011;7790;53.022;12.968;2023-03-01T11:01:44;4.77;;;2.10;;
15383;SDS011;7790;53.022;12.968;2023-03-01T11:05:52;4.37;;;2.03;;
15383;SDS011;7790;53.022;12.968;2023-03-01T11:10:20;3.07;;;1.90;;
15383;SDS011;7790;53.022;12.968;2023-03-01T11:14:27;2.80;;;1.93;;
15383;SDS011;7790;53.022;12.968;2023-03-01T11:18:35;2.30;;;1.87;;
15383;SDS011;7790;53.022;12.968;2023-03-01T11:22:36;3.93;;;1.80;;
15383;SDS011;7790;53.022;12.968;2023-03-01T11:26:47;6.33;;;4.57;;
15383;SDS011;7790;53.022;12.968;2023-03-01T11:31:08;9.17;;;8.03;;
15383;SDS011;7790;53.022;12.968;2023-03-01T11:35:17;5.23;;;3.80;;
15383;SDS011;7790;53.022;12.968;2023-03-01T11:56:40;4.60;;;3.43;;
15383;SDS011;7790;53.022;12.968;2023-03-01T12:05:21;5.10;;;3.60;;
15383;SDS011;7790;53.022;12.968;2023-03-01T12:09:52;7.20;;;3.20;;
15383;SDS011;7790;53.022;12.968;2023-03-01T12:14:20;4.57;;;2.83;;
15383;SDS011;7790;53.022;12.968;2023-03-01T12:48:59;6.53;;;2.43;;
15383;SDS011;7790;53.022;12.968;2023-03-01T12:53:03;5.23;;;2.30;;
15383;SDS011;7790;53.022;12.968;2023-03-01T13:10:17;2.97;;;1.90;;
15383;SDS011;7790;53.022;12.968;2023-03-01T13:18:27;2.90;;;1.83;;
15383;SDS011;7790;53.022;12.968;2023-03-01T13:22:30;3.00;;;2.00;;
15383;SDS011;7790;53.022;12.968;2023-03-01T13:26:53;4.40;;;2.27;;
15383;SDS011;7790;53.022;12.968;2023-03-01T13:31:09;2.40;;;1.90;;
15383;SDS011;7790;53.022;12.968;2023-03-01T13:35:41;3.53;;;2.00;;
15383;SDS011;7790;53.022;12.968;2023-03-01T13:39:43;3.10;;;1.50;;
15383;SDS011;7790;53.022;12.968;2023-03-01T13:43:44;3.60;;;1.70;;
15383;SDS011;7790;53.022;12.968;2023-03-01T13:47:49;3.17;;;1.40;;
15383;SDS011;7790;53.022;12.968;2023-03-01T13:51:54;3.33;;;1.50;;
15383;SDS011;7790;53.022;12.968;2023-03-01T13:55:56;3.07;;;1.90;;
15383;SDS011;7790;53.022;12.968;2023-03-01T14:00:02;3.70;;;1.53;;
15383;SDS011;7790;53.022;12.968;2023-03-01T14:04:21;4.40;;;1.60;;
15383;SDS011;7790;53.022;12.968;2023-03-01T14:08:25;3.50;;;1.70;;
15383;SDS011;7790;53.022;12.968;2023-03-01T14:17:12;1.87;;;1.60;;
15383;SDS011;7790;53.022;12.968;2023-03-01T14:21:42;2.50;;;1.50;;
15383;SDS011;7790;53.022;12.968;2023-03-01T14:29:58;2.47;;;0.90;;
15383;SDS011;7790;53.022;12.968;2023-03-01T14:34:00;2.33;;;1.10;;
15383;SDS011;7790;53.022;12.968;2023-03-01T14:38:02;2.70;;;1.30;;
15383;SDS011;7790;53.022;12.968;2023-03-01T14:42:04;1.90;;;1.30;;
15383;SDS011;7790;53.022;12.968;2023-03-01T14:46:05;2.63;;;1.20;;
15383;SDS011;7790;53.022;12.968;2023-03-01T14:50:19;3.20;;;1.03;;
15383;SDS011;7790;53.022;12.968;2023-03-01T14:58:32;1.00;;;1.00;;
15383;SDS011;7790;53.022;12.968;2023-03-01T15:02:34;1.37;;;1.10;;
15383;SDS011;7790;53.022;12.968;2023-03-01T15:06:35;1.40;;;0.77;;
15383;SDS011;7790;53.022;12.968;2023-03-01T15:10:36;1.77;;;0.90;;
15383;SDS011;7790;53.022;12.968;2023-03-01T15:14:41;1.00;;;0.90;;
15383;SDS011;7790;53.022;12.968;2023-03-01T15:18:43;1.37;;;0.87;;
15383;SDS011;7790;53.022;12.968;2023-03-01T15:22:53;1.93;;;1.00;;
15383;SDS011;7790;53.022;12.968;2023-03-01T15:26:57;1.77;;;1.10;;
15383;SDS011;7790;53.022;12.968;2023-03-01T15:31:18;1.10;;;0.87;;
15383;SDS011;7790;53.022;12.968;2023-03-01T15:35:39;0.87;;;0.70;;
15383;SDS011;7790;53.022;12.968;2023-03-01T15:39:42;1.57;;;0.87;;
15383;SDS011;7790;53.022;12.968;2023-03-01T15:43:53;0.80;;;0.80;;
15383;SDS011;7790;53.022;12.968;2023-03-01T15:48:05;2.00;;;1.00;;
15383;SDS011;7790;53.022;12.968;2023-03-01T15:52:25;1.93;;;0.90;;
15383;SDS011;7790;53.022;12.968;2023-03-01T15:56:31;1.80;;;1.00;;
15383;SDS011;7790;53.022;12.968;2023-03-01T16:00:32;0.93;;;0.90;;
15383;SDS011;7790;53.022;12.968;2023-03-01T16:04:33;1.80;;;1.00;;
15383;SDS011;7790;53.022;12.968;2023-03-01T16:08:34;0.97;;;0.87;;
15383;SDS011;7790;53.022;12.968;2023-03-01T16:12:35;2.23;;;0.83;;
15383;SDS011;7790;53.022;12.968;2023-03-01T16:16:36;5.57;;;3.23;;
15383;SDS011;7790;53.022;12.968;2023-03-01T16:20:36;2.60;;;2.07;;
15383;SDS011;7790;53.022;12.968;2023-03-01T16:24:37;2.63;;;1.80;;
15383;SDS011;7790;53.022;12.968;2023-03-01T16:28:39;3.40;;;1.90;;
15383;SDS011;7790;53.022;12.968;2023-03-01T16:32:41;1.90;;;1.80;;
15383;SDS011;7790;53.022;12.968;2023-03-01T16:36:43;1.40;;;1.30;;
15383;SDS011;7790;53.022;12.968;2023-03-01T16:40:49;1.50;;;1.40;;
15383;SDS011;7790;53.022;12.968;2023-03-01T16:44:57;2.37;;;1.27;;
15383;SDS011;7790;53.022;12.968;2023-03-01T16:48:58;2.87;;;1.33;;
15383;SDS011;7790;53.022;12.968;2023-03-01T16:52:58;1.40;;;1.27;;
15383;SDS011;7790;53.022;12.968;2023-03-01T16:56:59;4.70;;;1.30;;
15383;SDS011;7790;53.022;12.968;2023-03-01T17:01:07;2.97;;;1.47;;
15383;SDS011;7790;53.022;12.968;2023-03-01T17:05:10;2.27;;;1.33;;
15383;SDS011;7790;53.022;12.968;2023-03-01T17:09:12;3.67;;;1.27;;
15383;SDS011;7790;53.022;12.968;2023-03-01T17:13:12;1.93;;;1.13;;
15383;SDS011;7790;53.022;12.968;2023-03-01T17:17:13;1.20;;;1.00;;
15383;SDS011;7790;53.022;12.968;2023-03-01T17:21:14;1.47;;;1.37;;
15383;SDS011;7790;53.022;12.968;2023-03-01T17:25:15;1.37;;;1.20;;
15383;SDS011;7790;53.022;12.968;2023-03-01T17:29:16;2.37;;;1.50;;
15383;SDS011;7790;53.022;12.968;2023-03-01T17:33:18;2.37;;;1.13;;
15383;SDS011;7790;53.022;12.968;2023-03-01T17:37:19;2.43;;;1.40;;
15383;SDS011;7790;53.022;12.968;2023-03-01T17:41:20;1.30;;;1.20;;
15383;SDS011;7790;53.022;12.968;2023-03-01T17:45:24;1.20;;;1.20;;
15383;SDS011;7790;53.022;12.968;2023-03-01T17:49:25;0.87;;;0.80;;
15383;SDS011;7790;53.022;12.968;2023-03-01T17:53:25;2.10;;;1.17;;
15383;SDS011;7790;53.022;12.968;2023-03-01T17:57:26;1.87;;;1.40;;
15383;SDS011;7790;53.022;12.968;2023-03-01T18:01:27;1.57;;;1.13;;
15383;SDS011;7790;53.022;12.968;2023-03-01T18:05:30;1.20;;;1.10;;
15383;SDS011;7790;53.022;12.968;2023-03-01T18:09:35;0.87;;;0.87;;
15383;SDS011;7790;53.022;12.968;2023-03-01T18:13:36;0.90;;;0.90;;
15383;SDS011;7790;53.022;12.968;2023-03-01T18:17:38;0.80;;;0.80;;
15383;SDS011;7790;53.022;12.968;2023-03-01T18:21:39;0.90;;;0.90;;
15383;SDS011;7790;53.022;12.968;2023-03-01T18:25:40;1.57;;;1.07;;
15383;SDS011;7790;53.022;12.968;2023-03-01T18:29:41;0.80;;;0.80;;
15383;SDS011;7790;53.022;12.968;2023-03-01T18:33:42;1.20;;;1.00;;
15383;SDS011;7790;53.022;12.968;2023-03-01T18:37:46;1.10;;;1.00;;
15383;SDS011;7790;53.022;12.968;2023-03-01T18:41:48;0.87;;;0.87;;
15383;SDS011;7790;53.022;12.968;2023-03-01T18:45:59;1.40;;;1.10;;
15383;SDS011;7790;53.022;12.968;2023-03-01T18:50:00;1.20;;;1.10;;
15383;SDS011;7790;53.022;12.968;2023-03-01T18:54:02;1.40;;;1.17;;
15383;SDS011;7790;53.022;12.968;2023-03-01T18:58:03;2.30;;;1.20;;
15383;SDS011;7790;53.022;12.968;2023-03-01T19:02:04;1.40;;;1.30;;
15383;SDS011;7790;53.022;12.968;2023-03-01T19:06:05;1.00;;;1.00;;
15383;SDS011;7790;53.022;12.968;2023-03-01T19:10:06;3.50;;;1.57;;
15383;SDS011;7790;53.022;12.968;2023-03-01T19:14:07;6.87;;;1.70;;
15383;SDS011;7790;53.022;12.968;2023-03-01T19:18:09;4.20;;;1.70;;
15383;SDS011;7790;53.022;12.968;2023-03-01T19:22:10;1.60;;;1.50;;
15383;SDS011;7790;53.022;12.968;2023-03-01T19:26:11;2.07;;;1.90;;
15383;SDS011;7790;53.022;12.968;2023-03-01T19:30:15;1.70;;;1.60;;
15383;SDS011;7790;53.022;12.968;2023-03-01T19:34:16;1.83;;;1.67;;
15383;SDS011;7790;53.022;12.968;2023-03-01T19:38:17;1.83;;;1.60;;
15383;SDS011;7790;53.022;12.968;2023-03-01T19:42:17;7.00;;;1.40;;
15383;SDS011;7790;53.022;12.968;2023-03-01T19:46:18;1.70;;;1.60;;
15383;SDS011;7790;53.022;12.968;2023-03-01T19:50:19;2.97;;;1.60;;
15383;SDS011;7790;53.022;12.968;2023-03-01T19:54:20;2.40;;;1.57;;
15383;SDS011;7790;53.022;12.968;2023-03-01T19:58:22;2.60;;;1.50;;
15383;SDS011;7790;53.022;12.968;2023-03-01T20:02:23;1.70;;;1.60;;
15383;SDS011;7790;53.022;12.968;2023-03-01T20:06:24;1.40;;;1.30;;
15383;SDS011;7790;53.022;12.968;2023-03-01T20:10:27;1.70;;;1.60;;
15383;SDS011;7790;53.022;12.968;2023-03-01T20:14:29;1.50;;;1.40;;
15383;SDS011;7790;53.022;12.968;2023-03-01T20:18:30;2.30;;;1.50;;
15383;SDS011;7790;53.022;12.968;2023-03-01T20:22:31;1.60;;;1.50;;
15383;SDS011;7790;53.022;12.968;2023-03-01T20:26:32;1.20;;;1.10;;
15383;SDS011;7790;53.022;12.968;2023-03-01T20:30:33;1.50;;;1.40;;
15383;SDS011;7790;53.022;12.968;2023-03-01T20:34:36;1.50;;;1.40;;
15383;SDS011;7790;53.022;12.968;2023-03-01T20:38:37;1.30;;;1.20;;
15383;SDS011;7790;53.022;12.968;2023-03-01T20:42:38;1.47;;;1.30;;
15383;SDS011;7790;53.022;12.968;2023-03-01T20:46:39;1.30;;;1.20;;
15383;SDS011;7790;53.022;12.968;2023-03-01T20:50:40;1.50;;;1.40;;
15383;SDS011;7790;53.022;12.968;2023-03-01T20:54:41;2.07;;;1.57;;
15383;SDS011;7790;53.022;12.968;2023-03-01T20:58:42;1.33;;;1.23;;
15383;SDS011;7790;53.022;12.968;2023-03-01T21:02:43;1.17;;;1.17;;
15383;SDS011;7790;53.022;12.968;2023-03-01T21:06:44;1.50;;;1.40;;
15383;SDS011;7790;53.022;12.968;2023-03-01T21:10:48;1.37;;;1.27;;
15383;SDS011;7790;53.022;12.968;2023-03-01T21:14:52;1.20;;;1.20;;
15383;SDS011;7790;53.022;12.968;2023-03-01T21:18:53;2.50;;;1.50;;
15383;SDS011;7790;53.022;12.968;2023-03-01T21:22:54;1.13;;;1.13;;
15383;SDS011;7790;53.022;12.968;2023-03-01T21:26:55;2.87;;;1.30;;
15383;SDS011;7790;53.022;12.968;2023-03-01T21:30:56;1.73;;;1.57;;
15383;SDS011;7790;53.022;12.968;2023-03-01T21:35:01;1.43;;;1.30;;
15383;SDS011;7790;53.022;12.968;2023-03-01T21:39:02;2.33;;;1.40;;
15383;SDS011;7790;53.022;12.968;2023-03-01T21:43:07;1.60;;;1.30;;
15383;SDS011;7790;53.022;12.968;2023-03-01T21:47:08;1.60;;;1.50;;
15383;SDS011;7790;53.022;12.968;2023-03-01T21:51:10;1.47;;;1.37;;
15383;SDS011;7790;53.022;12.968;2023-03-01T21:55:12;1.50;;;1.40;;
15383;SDS011;7790;53.022;12.968;2023-03-01T21:59:14;1.40;;;1.30;;
15383;SDS011;7790;53.022;12.968;2023-03-01T22:03:16;1.37;;;1.27;;
15383;SDS011;7790;53.022;12.968;2023-03-01T22:07:17;1.33;;;1.23;;
15383;SDS011;7790;53.022;12.968;2023-03-01T22:11:19;1.30;;;1.10;;
15383;SDS011;7790;53.022;12.968;2023-03-01T22:15:21;2.20;;;1.33;;
15383;SDS011;7790;53.022;12.968;2023-03-01T22:19:22;1.20;;;1.20;;
15383;SDS011;7790;53.022;12.968;2023-03-01T22:23:23;1.40;;;1.30;;
15383;SDS011;7790;53.022;12.968;2023-03-01T22:27:24;1.37;;;1.10;;
15383;SDS011;7790;53.022;12.968;2023-03-01T22:31:25;1.20;;;1.20;;
15383;SDS011;7790;53.022;12.968;2023-03-01T22:35:27;1.40;;;1.30;;
15383;SDS011;7790;53.022;12.968;2023-03-01T22:39:28;1.40;;;1.30;;
15383;SDS011;7790;53.022;12.968;2023-03-01T22:43:29;2.20;;;1.30;;
15383;SDS011;7790;53.022;12.968;2023-03-01T22:47:31;1.40;;;1.30;;
15383;SDS011;7790;53.022;12.968;2023-03-01T22:51:37;1.27;;;1.27;;
15383;SDS011;7790;53.022;12.968;2023-03-01T22:55:39;1.37;;;1.30;;
15383;SDS011;7790;53.022;12.968;2023-03-01T22:59:40;1.27;;;1.23;;
15383;SDS011;7790;53.022;12.968;2023-03-01T23:03:41;1.60;;;1.50;;
15383;SDS011;7790;53.022;12.968;2023-03-01T23:07:42;1.23;;;1.23;;
15383;SDS011;7790;53.022;12.968;2023-03-01T23:11:44;1.63;;;1.53;;
15383;SDS011;7790;53.022;12.968;2023-03-01T23:15:45;1.90;;;1.80;;
15383;SDS011;7790;53.022;12.968;2023-03-01T23:19:51;1.80;;;1.70;;
15383;SDS011;7790;53.022;12.968;2023-03-01T23:23:55;1.83;;;1.73;;
15383;SDS011;7790;53.022;12.968;2023-03-01T23:27:56;1.60;;;1.50;;
15383;SDS011;7790;53.022;12.968;2023-03-01T23:31:57;1.73;;;1.63;;
15383;SDS011;7790;53.022;12.968;2023-03-01T23:35:59;1.80;;;1.70;;
15383;SDS011;7790;53.022;12.968;2023-03-01T23:40:03;1.60;;;1.50;;
15383;SDS011;7790;53.022;12.968;2023-03-01T23:44:05;1.70;;;1.60;;
15383;SDS011;7790;53.022;12.968;2023-03-01T23:48:06;2.20;;;2.00;;
15383;SDS011;7790;53.022;12.968;2023-03-01T23:52:09;1.60;;;1.50;;
15383;SDS011;7790;53.022;12.968;2023-03-01T23:56:12;1.80;;;1.70;;
